sensor_id;sensor_type;location;lat;lon;timestamp;pressure;altitude;pressure_sealevel;temperature;humidity
73245;BME280;61460;41.158;-73.238;2022-11-18T00:01:50;101514.05;;;25.06;36.76
73245;BME280;61460;41.158;-73.238;2022-11-18T00:04:21;101519.08;;;25.08;36.87
73245;BME280;61460;41.158;-73.238;2022-11-18T00:06:52;101520.06;;;25.08;36.55
73245;BME280;61460;41.158;-73.238;2022-11-18T00:09:22;101521.80;;;24.86;35.10
73245;BME280;61460;41.158;-73.238;2022-11-18T00:11:53;101531.40;;;24.82;35.03
73245;BME280;61460;41.158;-73.238;2022-11-18T00:14:25;101544.58;;;24.89;36.05
73245;BME280;61460;41.158;-73.238;2022-11-18T00:16:55;101542.37;;;24.91;36.71
73245;BME280;61460;41.158;-73.238;2022-11-18T00:19:27;101546.08;;;24.95;36.70
73245;BME280;61460;41.158;-73.238;2022-11-18T00:21:56;101551.11;;;24.67;37.08
73245;BME280;61460;41.158;-73.238;2022-11-18T00:24:27;101551.37;;;24.82;36.87
73245;BME280;61460;41.158;-73.238;2022-11-18T00:26:57;101554.59;;;24.88;36.84
73245;BME280;61460;41.158;-73.238;2022-11-18T00:29:27;101562.83;;;24.94;36.99
73245;BME280;61460;41.158;-73.238;2022-11-18T00:31:58;101569.28;;;25.01;36.93
73245;BME280;61460;41.158;-73.238;2022-11-18T00:34:28;101566.08;;;24.81;35.49
73245;BME280;61460;41.158;-73.238;2022-11-18T00:36:59;101570.18;;;24.90;35.52
73245;BME280;61460;41.158;-73.238;2022-11-18T00:39:30;101569.85;;;24.97;36.58
73245;BME280;61460;41.158;-73.238;2022-11-18T00:42:00;101568.29;;;24.99;36.59
73245;BME280;61460;41.158;-73.238;2022-11-18T00:44:31;101564.97;;;25.00;36.61
73245;BME280;61460;41.158;-73.238;2022-11-18T00:47:02;101570.28;;;25.06;36.54
73245;BME280;61460;41.158;-73.238;2022-11-18T00:49:32;101569.23;;;25.06;36.67
73245;BME280;61460;41.158;-73.238;2022-11-18T00:52:03;101562.47;;;24.68;37.21
73245;BME280;61460;41.158;-73.238;2022-11-18T00:54:33;101562.06;;;24.87;36.33
73245;BME280;61460;41.158;-73.238;2022-11-18T00:57:04;101563.45;;;24.73;35.49
73245;BME280;61460;41.158;-73.238;2022-11-18T00:59:34;101564.03;;;24.65;35.48
73245;BME280;61460;41.158;-73.238;2022-11-18T01:02:05;101567.22;;;24.83;36.41
73245;BME280;61460;41.158;-73.238;2022-11-18T01:04:36;101564.13;;;24.92;36.32
73245;BME280;61460;41.158;-73.238;2022-11-18T01:07:07;101563.18;;;24.94;36.14
73245;BME280;61460;41.158;-73.238;2022-11-18T01:09:37;101565.11;;;24.97;36.22
73245;BME280;61460;41.158;-73.238;2022-11-18T01:12:09;101562.14;;;24.88;36.13
73245;BME280;61460;41.158;-73.238;2022-11-18T01:14:38;101565.61;;;24.62;37.08
73245;BME280;61460;41.158;-73.238;2022-11-18T01:17:09;101567.15;;;24.61;36.14
73245;BME280;61460;41.158;-73.238;2022-11-18T01:19:39;101573.30;;;24.72;36.59
73245;BME280;61460;41.158;-73.238;2022-11-18T01:22:10;101570.35;;;24.74;36.27
73245;BME280;61460;41.158;-73.238;2022-11-18T01:24:40;101569.26;;;24.58;34.66
73245;BME280;61460;41.158;-73.238;2022-11-18T01:27:11;101575.07;;;24.50;35.55
73245;BME280;61460;41.158;-73.238;2022-11-18T01:29:42;101580.00;;;24.64;36.73
73245;BME280;61460;41.158;-73.238;2022-11-18T01:32:13;101592.08;;;24.71;36.42
73245;BME280;61460;41.158;-73.238;2022-11-18T01:34:43;101588.33;;;24.80;36.12
73245;BME280;61460;41.158;-73.238;2022-11-18T01:37:14;101592.44;;;24.83;36.52
73245;BME280;61460;41.158;-73.238;2022-11-18T01:39:44;101593.81;;;24.65;37.06
73245;BME280;61460;41.158;-73.238;2022-11-18T01:42:16;101603.01;;;24.61;36.23
73245;BME280;61460;41.158;-73.238;2022-11-18T01:47:16;101602.96;;;24.82;35.05
73245;BME280;61460;41.158;-73.238;2022-11-18T01:49:47;101612.74;;;24.73;35.44
73245;BME280;61460;41.158;-73.238;2022-11-18T01:52:17;101611.38;;;24.77;36.10
73245;BME280;61460;41.158;-73.238;2022-11-18T01:54:50;101619.00;;;24.89;36.08
73245;BME280;61460;41.158;-73.238;2022-11-18T01:57:20;101617.52;;;24.92;36.11
73245;BME280;61460;41.158;-73.238;2022-11-18T01:59:53;101615.43;;;24.94;36.16
73245;BME280;61460;41.158;-73.238;2022-11-18T02:02:20;101614.77;;;24.94;36.35
73245;BME280;61460;41.158;-73.238;2022-11-18T02:04:52;101610.50;;;24.97;36.33
73245;BME280;61460;41.158;-73.238;2022-11-18T02:07:21;101608.94;;;24.78;36.92
73245;BME280;61460;41.158;-73.238;2022-11-18T02:09:52;101611.10;;;24.92;36.21
73245;BME280;61460;41.158;-73.238;2022-11-18T02:12:22;101612.15;;;24.92;34.57
73245;BME280;61460;41.158;-73.238;2022-11-18T02:14:53;101613.48;;;24.80;34.97
73245;BME280;61460;41.158;-73.238;2022-11-18T02:17:32;101613.06;;;24.85;35.84
73245;BME280;61460;41.158;-73.238;2022-11-18T02:20:06;101622.32;;;24.92;35.91
73245;BME280;61460;41.158;-73.238;2022-11-18T02:22:36;101632.41;;;24.97;35.86
73245;BME280;61460;41.158;-73.238;2022-11-18T02:24:59;101633.52;;;24.99;35.94
73245;BME280;61460;41.158;-73.238;2022-11-18T02:29:59;101638.13;;;24.99;36.03
73245;BME280;61460;41.158;-73.238;2022-11-18T02:32:32;101643.26;;;25.00;36.15
73245;BME280;61460;41.158;-73.238;2022-11-18T02:35:01;101636.92;;;24.84;35.47
73245;BME280;61460;41.158;-73.238;2022-11-18T02:37:32;101636.25;;;24.83;35.75
73245;BME280;61460;41.158;-73.238;2022-11-18T02:40:01;101633.70;;;24.72;34.86
73245;BME280;61460;41.158;-73.238;2022-11-18T02:42:31;101634.21;;;24.65;32.97
73245;BME280;61460;41.158;-73.238;2022-11-18T02:45:04;101634.12;;;24.81;35.61
73245;BME280;61460;41.158;-73.238;2022-11-18T02:47:31;101640.77;;;24.86;35.49
73245;BME280;61460;41.158;-73.238;2022-11-18T02:50:05;101638.91;;;24.88;35.79
73245;BME280;61460;41.158;-73.238;2022-11-18T02:52:34;101643.78;;;24.88;36.10
73245;BME280;61460;41.158;-73.238;2022-11-18T02:55:06;101643.44;;;24.86;36.21
73245;BME280;61460;41.158;-73.238;2022-11-18T02:57:33;101643.26;;;24.85;36.46
73245;BME280;61460;41.158;-73.238;2022-11-18T03:00:04;101641.39;;;24.68;37.16
73245;BME280;61460;41.158;-73.238;2022-11-18T03:02:40;101639.20;;;24.58;37.17
73245;BME280;61460;41.158;-73.238;2022-11-18T03:05:06;101646.73;;;24.31;37.15
73245;BME280;61460;41.158;-73.238;2022-11-18T03:07:36;101644.43;;;24.30;36.16
73245;BME280;61460;41.158;-73.238;2022-11-18T03:10:06;101634.74;;;24.26;36.95
73245;BME280;61460;41.158;-73.238;2022-11-18T03:12:41;101631.24;;;24.21;37.43
73245;BME280;61460;41.158;-73.238;2022-11-18T03:15:16;101630.56;;;24.01;37.42
73245;BME280;61460;41.158;-73.238;2022-11-18T03:17:46;101640.85;;;23.94;37.52
73245;BME280;61460;41.158;-73.238;2022-11-18T03:20:15;101647.40;;;23.94;37.79
73245;BME280;61460;41.158;-73.238;2022-11-18T03:22:43;101648.69;;;23.85;38.10
73245;BME280;61460;41.158;-73.238;2022-11-18T03:25:13;101650.92;;;23.85;37.35
73245;BME280;61460;41.158;-73.238;2022-11-18T03:27:44;101655.63;;;23.91;36.21
73245;BME280;61460;41.158;-73.238;2022-11-18T03:30:16;101656.65;;;23.79;36.05
73245;BME280;61460;41.158;-73.238;2022-11-18T03:32:44;101663.51;;;23.89;36.44
73245;BME280;61460;41.158;-73.238;2022-11-18T03:35:16;101663.49;;;23.70;36.68
73245;BME280;61460;41.158;-73.238;2022-11-18T03:37:43;101665.43;;;23.72;37.06
73245;BME280;61460;41.158;-73.238;2022-11-18T03:40:17;101660.29;;;23.76;37.41
73245;BME280;61460;41.158;-73.238;2022-11-18T03:42:47;101672.42;;;23.59;37.98
73245;BME280;61460;41.158;-73.238;2022-11-18T03:45:18;101681.71;;;23.57;38.05
73245;BME280;61460;41.158;-73.238;2022-11-18T03:47:49;101681.58;;;23.64;37.87
73245;BME280;61460;41.158;-73.238;2022-11-18T03:50:19;101685.05;;;23.72;36.58
73245;BME280;61460;41.158;-73.238;2022-11-18T03:52:47;101691.40;;;23.63;34.81
73245;BME280;61460;41.158;-73.238;2022-11-18T03:55:21;101691.60;;;23.50;36.85
73245;BME280;61460;41.158;-73.238;2022-11-18T03:57:52;101699.14;;;23.39;37.01
73245;BME280;61460;41.158;-73.238;2022-11-18T04:00:18;101696.36;;;23.33;37.26
73245;BME280;61460;41.158;-73.238;2022-11-18T04:02:49;101689.91;;;23.47;37.53
73245;BME280;61460;41.158;-73.238;2022-11-18T04:05:20;101688.95;;;23.39;37.83
73245;BME280;61460;41.158;-73.238;2022-11-18T04:07:54;101690.54;;;23.46;38.02
73245;BME280;61460;41.158;-73.238;2022-11-18T04:10:23;101690.40;;;23.57;37.36
73245;BME280;61460;41.158;-73.238;2022-11-18T04:12:58;101689.13;;;23.49;36.61
73245;BME280;61460;41.158;-73.238;2022-11-18T04:15:24;101689.89;;;23.29;38.25
73245;BME280;61460;41.158;-73.238;2022-11-18T04:17:52;101690.81;;;23.38;35.68
73245;BME280;61460;41.158;-73.238;2022-11-18T04:20:24;101693.47;;;23.31;36.81
73245;BME280;61460;41.158;-73.238;2022-11-18T04:22:54;101690.31;;;23.38;37.09
73245;BME280;61460;41.158;-73.238;2022-11-18T04:25:24;101693.73;;;23.20;37.65
73245;BME280;61460;41.158;-73.238;2022-11-18T04:27:55;101697.43;;;23.14;37.88
73245;BME280;61460;41.158;-73.238;2022-11-18T04:30:25;101701.87;;;23.09;38.13
73245;BME280;61460;41.158;-73.238;2022-11-18T04:32:56;101704.66;;;23.17;37.85
73245;BME280;61460;41.158;-73.238;2022-11-18T04:35:27;101701.82;;;23.24;36.87
73245;BME280;61460;41.158;-73.238;2022-11-18T04:37:57;101705.79;;;23.14;35.50
73245;BME280;61460;41.158;-73.238;2022-11-18T04:40:28;101706.48;;;23.06;36.91
73245;BME280;61460;41.158;-73.238;2022-11-18T04:42:58;101714.26;;;22.93;37.45
73245;BME280;61460;41.158;-73.238;2022-11-18T04:45:29;101719.03;;;22.88;37.71
73245;BME280;61460;41.158;-73.238;2022-11-18T04:48:00;101722.06;;;22.94;38.05
73245;BME280;61460;41.158;-73.238;2022-11-18T04:50:30;101728.46;;;22.98;38.27
73245;BME280;61460;41.158;-73.238;2022-11-18T04:53:01;101720.59;;;23.03;38.34
73245;BME280;61460;41.158;-73.238;2022-11-18T04:55:34;101715.41;;;22.98;38.17
73245;BME280;61460;41.158;-73.238;2022-11-18T04:58:02;101704.26;;;23.07;37.31
73245;BME280;61460;41.158;-73.238;2022-11-18T05:00:33;101700.39;;;23.06;35.88
73245;BME280;61460;41.158;-73.238;2022-11-18T05:03:03;101704.69;;;22.94;37.35
73245;BME280;61460;41.158;-73.238;2022-11-18T05:05:34;101710.02;;;22.76;37.99
73245;BME280;61460;41.158;-73.238;2022-11-18T05:08:05;101714.59;;;22.84;37.66
73245;BME280;61460;41.158;-73.238;2022-11-18T05:10:37;101714.46;;;22.80;38.22
73245;BME280;61460;41.158;-73.238;2022-11-18T05:13:06;101713.93;;;22.85;38.26
73245;BME280;61460;41.158;-73.238;2022-11-18T05:15:36;101714.69;;;22.97;38.17
73245;BME280;61460;41.158;-73.238;2022-11-18T05:18:09;101724.89;;;22.86;37.93
73245;BME280;61460;41.158;-73.238;2022-11-18T05:20:38;101724.63;;;22.92;37.83
73245;BME280;61460;41.158;-73.238;2022-11-18T05:23:08;101724.46;;;22.82;37.32
73245;BME280;61460;41.158;-73.238;2022-11-18T05:25:39;101731.22;;;22.76;37.83
73245;BME280;61460;41.158;-73.238;2022-11-18T05:28:09;101734.90;;;22.74;38.04
73245;BME280;61460;41.158;-73.238;2022-11-18T05:30:40;101730.08;;;22.77;38.24
73245;BME280;61460;41.158;-73.238;2022-11-18T05:33:11;101730.40;;;22.83;38.36
73245;BME280;61460;41.158;-73.238;2022-11-18T05:35:41;101727.90;;;22.82;38.43
73245;BME280;61460;41.158;-73.238;2022-11-18T05:38:12;101728.24;;;22.82;37.82
73245;BME280;61460;41.158;-73.238;2022-11-18T05:40:43;101735.91;;;22.71;38.85
73245;BME280;61460;41.158;-73.238;2022-11-18T05:43:13;101737.63;;;22.77;37.11
73245;BME280;61460;41.158;-73.238;2022-11-18T05:45:44;101732.26;;;22.80;37.30
73245;BME280;61460;41.158;-73.238;2022-11-18T05:48:14;101733.21;;;22.81;37.65
73245;BME280;61460;41.158;-73.238;2022-11-18T05:50:46;101738.00;;;22.72;38.28
73245;BME280;61460;41.158;-73.238;2022-11-18T05:53:17;101741.01;;;22.74;39.00
73245;BME280;61460;41.158;-73.238;2022-11-18T05:55:50;101742.60;;;22.73;39.04
73245;BME280;61460;41.158;-73.238;2022-11-18T05:58:17;101739.64;;;22.60;38.41
73245;BME280;61460;41.158;-73.238;2022-11-18T06:00:49;101731.35;;;22.61;37.62
73245;BME280;61460;41.158;-73.238;2022-11-18T06:03:22;101721.07;;;22.64;37.85
73245;BME280;61460;41.158;-73.238;2022-11-18T06:05:50;101717.31;;;22.65;37.97
73245;BME280;61460;41.158;-73.238;2022-11-18T06:08:20;101713.65;;;22.76;38.13
73245;BME280;61460;41.158;-73.238;2022-11-18T06:10:50;101715.11;;;22.77;38.25
73245;BME280;61460;41.158;-73.238;2022-11-18T06:13:24;101715.37;;;22.71;38.69
73245;BME280;61460;41.158;-73.238;2022-11-18T06:15:51;101725.79;;;22.69;37.74
73245;BME280;61460;41.158;-73.238;2022-11-18T06:18:23;101723.65;;;22.58;37.54
73245;BME280;61460;41.158;-73.238;2022-11-18T06:20:53;101727.97;;;22.69;37.50
73245;BME280;61460;41.158;-73.238;2022-11-18T06:23:23;101728.65;;;22.69;37.47
73245;BME280;61460;41.158;-73.238;2022-11-18T06:25:53;101734.99;;;22.63;37.91
73245;BME280;61460;41.158;-73.238;2022-11-18T06:28:24;101735.51;;;22.68;38.26
73245;BME280;61460;41.158;-73.238;2022-11-18T06:30:54;101733.42;;;22.71;38.08
73245;BME280;61460;41.158;-73.238;2022-11-18T06:33:25;101738.61;;;22.54;38.42
73245;BME280;61460;41.158;-73.238;2022-11-18T06:35:56;101739.02;;;22.63;38.86
73245;BME280;61460;41.158;-73.238;2022-11-18T06:38:26;101742.73;;;22.68;36.89
73245;BME280;61460;41.158;-73.238;2022-11-18T06:40:59;101738.28;;;22.76;37.27
73245;BME280;61460;41.158;-73.238;2022-11-18T06:43:27;101739.18;;;22.78;37.14
73245;BME280;61460;41.158;-73.238;2022-11-18T06:45:59;101737.92;;;22.57;38.29
73245;BME280;61460;41.158;-73.238;2022-11-18T06:48:30;101740.70;;;22.57;37.96
73245;BME280;61460;41.158;-73.238;2022-11-18T06:50:59;101741.85;;;22.45;36.87
73245;BME280;61460;41.158;-73.238;2022-11-18T06:53:30;101744.33;;;22.54;37.22
73245;BME280;61460;41.158;-73.238;2022-11-18T06:56:02;101737.59;;;22.57;37.45
73245;BME280;61460;41.158;-73.238;2022-11-18T06:58:31;101730.12;;;22.46;37.19
73245;BME280;61460;41.158;-73.238;2022-11-18T07:01:08;101739.38;;;22.49;37.72
73245;BME280;61460;41.158;-73.238;2022-11-18T07:03:32;101743.10;;;22.47;38.18
73245;BME280;61460;41.158;-73.238;2022-11-18T07:06:03;101738.52;;;22.52;38.25
73245;BME280;61460;41.158;-73.238;2022-11-18T07:08:35;101736.11;;;22.58;37.76
73245;BME280;61460;41.158;-73.238;2022-11-18T07:11:06;101743.50;;;22.52;36.77
73245;BME280;61460;41.158;-73.238;2022-11-18T07:13:35;101745.93;;;22.59;37.25
73245;BME280;61460;41.158;-73.238;2022-11-18T07:16:08;101743.37;;;22.61;36.55
73245;BME280;61460;41.158;-73.238;2022-11-18T07:18:38;101743.72;;;22.75;36.66
73245;BME280;61460;41.158;-73.238;2022-11-18T07:21:08;101746.56;;;22.61;37.30
73245;BME280;61460;41.158;-73.238;2022-11-18T07:23:38;101740.25;;;22.52;38.00
73245;BME280;61460;41.158;-73.238;2022-11-18T07:26:08;101736.90;;;22.49;38.13
73245;BME280;61460;41.158;-73.238;2022-11-18T07:28:39;101736.72;;;22.46;37.85
73245;BME280;61460;41.158;-73.238;2022-11-18T07:31:11;101742.08;;;22.43;36.96
73245;BME280;61460;41.158;-73.238;2022-11-18T07:33:41;101746.77;;;22.43;37.12
73245;BME280;61460;41.158;-73.238;2022-11-18T07:36:13;101745.05;;;22.43;37.41
73245;BME280;61460;41.158;-73.238;2022-11-18T07:38:41;101745.77;;;22.46;37.52
73245;BME280;61460;41.158;-73.238;2022-11-18T07:41:13;101749.80;;;22.45;37.81
73245;BME280;61460;41.158;-73.238;2022-11-18T07:43:43;101753.28;;;22.44;38.08
73245;BME280;61460;41.158;-73.238;2022-11-18T07:46:15;101752.77;;;22.47;38.32
73245;BME280;61460;41.158;-73.238;2022-11-18T07:48:45;101741.06;;;22.53;38.92
73245;BME280;61460;41.158;-73.238;2022-11-18T07:51:16;101733.35;;;22.41;38.36
73245;BME280;61460;41.158;-73.238;2022-11-18T07:53:45;101733.09;;;22.48;37.74
73245;BME280;61460;41.158;-73.238;2022-11-18T07:56:16;101729.99;;;22.32;38.02
73245;BME280;61460;41.158;-73.238;2022-11-18T07:58:46;101729.69;;;22.39;37.82
73245;BME280;61460;41.158;-73.238;2022-11-18T08:01:19;101729.71;;;22.37;39.59
73245;BME280;61460;41.158;-73.238;2022-11-18T08:03:47;101720.40;;;22.39;39.57
73245;BME280;61460;41.158;-73.238;2022-11-18T08:06:18;101713.51;;;22.44;39.61
73245;BME280;61460;41.158;-73.238;2022-11-18T08:08:49;101720.41;;;22.36;38.51
73245;BME280;61460;41.158;-73.238;2022-11-18T08:11:19;101722.73;;;22.32;38.54
73245;BME280;61460;41.158;-73.238;2022-11-18T08:13:50;101722.87;;;22.17;39.78
73245;BME280;61460;41.158;-73.238;2022-11-18T08:16:22;101727.24;;;22.18;38.25
73245;BME280;61460;41.158;-73.238;2022-11-18T08:18:51;101730.87;;;22.25;38.23
73245;BME280;61460;41.158;-73.238;2022-11-18T08:21:22;101745.35;;;22.19;38.68
73245;BME280;61460;41.158;-73.238;2022-11-18T08:23:54;101750.62;;;22.21;39.04
73245;BME280;61460;41.158;-73.238;2022-11-18T08:26:23;101753.94;;;22.22;37.93
73245;BME280;61460;41.158;-73.238;2022-11-18T08:28:53;101747.79;;;22.31;37.50
73245;BME280;61460;41.158;-73.238;2022-11-18T08:31:26;101741.94;;;22.20;37.18
73245;BME280;61460;41.158;-73.238;2022-11-18T08:33:55;101738.99;;;22.17;37.67
73245;BME280;61460;41.158;-73.238;2022-11-18T08:36:27;101737.71;;;22.16;37.68
73245;BME280;61460;41.158;-73.238;2022-11-18T08:38:56;101740.09;;;22.20;37.85
73245;BME280;61460;41.158;-73.238;2022-11-18T08:41:31;101743.03;;;22.17;38.18
73245;BME280;61460;41.158;-73.238;2022-11-18T08:43:57;101742.38;;;22.10;38.53
73245;BME280;61460;41.158;-73.238;2022-11-18T08:46:27;101741.84;;;22.07;37.71
73245;BME280;61460;41.158;-73.238;2022-11-18T08:48:59;101745.94;;;21.98;37.26
73245;BME280;61460;41.158;-73.238;2022-11-18T08:51:29;101746.15;;;21.94;37.67
73245;BME280;61460;41.158;-73.238;2022-11-18T08:53:59;101743.70;;;22.00;37.51
73245;BME280;61460;41.158;-73.238;2022-11-18T08:56:30;101740.72;;;22.03;37.82
73245;BME280;61460;41.158;-73.238;2022-11-18T08:59:01;101737.95;;;22.04;38.66
73245;BME280;61460;41.158;-73.238;2022-11-18T09:01:31;101744.09;;;22.06;38.99
73245;BME280;61460;41.158;-73.238;2022-11-18T09:04:02;101743.43;;;22.00;39.01
73245;BME280;61460;41.158;-73.238;2022-11-18T09:06:32;101745.36;;;22.02;39.71
73245;BME280;61460;41.158;-73.238;2022-11-18T09:09:03;101751.46;;;21.97;38.65
73245;BME280;61460;41.158;-73.238;2022-11-18T09:11:34;101751.43;;;21.94;38.19
73245;BME280;61460;41.158;-73.238;2022-11-18T09:14:04;101748.80;;;21.89;37.80
73245;BME280;61460;41.158;-73.238;2022-11-18T09:16:35;101754.80;;;21.94;37.97
73245;BME280;61460;41.158;-73.238;2022-11-18T09:19:05;101763.59;;;21.99;38.35
73245;BME280;61460;41.158;-73.238;2022-11-18T09:21:36;101770.19;;;21.88;39.19
73245;BME280;61460;41.158;-73.238;2022-11-18T09:24:08;101769.77;;;21.95;39.22
73245;BME280;61460;41.158;-73.238;2022-11-18T09:26:38;101770.85;;;21.94;39.57
73245;BME280;61460;41.158;-73.238;2022-11-18T09:29:07;101769.43;;;22.03;39.39
73245;BME280;61460;41.158;-73.238;2022-11-18T09:31:38;101769.71;;;22.06;39.55
73245;BME280;61460;41.158;-73.238;2022-11-18T09:34:09;101769.21;;;22.08;39.52
73245;BME280;61460;41.158;-73.238;2022-11-18T09:36:39;101769.21;;;21.86;39.10
73245;BME280;61460;41.158;-73.238;2022-11-18T09:39:10;101768.91;;;21.84;40.15
73245;BME280;61460;41.158;-73.238;2022-11-18T09:41:44;101764.88;;;22.01;37.49
73245;BME280;61460;41.158;-73.238;2022-11-18T09:44:19;101772.31;;;22.01;38.05
73245;BME280;61460;41.158;-73.238;2022-11-18T09:46:50;101768.04;;;21.99;38.36
73245;BME280;61460;41.158;-73.238;2022-11-18T09:49:15;101766.78;;;22.04;39.31
73245;BME280;61460;41.158;-73.238;2022-11-18T09:51:45;101765.93;;;21.99;38.03
73245;BME280;61460;41.158;-73.238;2022-11-18T09:54:17;101759.75;;;21.97;37.16
73245;BME280;61460;41.158;-73.238;2022-11-18T09:56:45;101763.28;;;21.89;38.06
73245;BME280;61460;41.158;-73.238;2022-11-18T09:59:17;101758.82;;;21.91;37.81
73245;BME280;61460;41.158;-73.238;2022-11-18T10:01:46;101759.19;;;21.86;38.13
73245;BME280;61460;41.158;-73.238;2022-11-18T10:04:18;101758.70;;;21.90;38.09
73245;BME280;61460;41.158;-73.238;2022-11-18T10:06:48;101763.48;;;21.97;38.64
73245;BME280;61460;41.158;-73.238;2022-11-18T10:09:25;101757.70;;;21.85;38.02
73245;BME280;61460;41.158;-73.238;2022-11-18T10:12:00;101768.42;;;21.94;38.77
73245;BME280;61460;41.158;-73.238;2022-11-18T10:14:25;101768.26;;;21.81;37.48
73245;BME280;61460;41.158;-73.238;2022-11-18T10:16:55;101766.60;;;21.87;37.29
73245;BME280;61460;41.158;-73.238;2022-11-18T10:19:26;101761.45;;;21.83;37.66
73245;BME280;61460;41.158;-73.238;2022-11-18T10:21:58;101763.10;;;21.80;38.65
73245;BME280;61460;41.158;-73.238;2022-11-18T10:24:24;101759.16;;;21.82;38.97
73245;BME280;61460;41.158;-73.238;2022-11-18T10:26:55;101760.25;;;21.76;38.39
73245;BME280;61460;41.158;-73.238;2022-11-18T10:29:22;101765.75;;;21.93;37.28
73245;BME280;61460;41.158;-73.238;2022-11-18T10:31:57;101768.46;;;21.80;37.83
73245;BME280;61460;41.158;-73.238;2022-11-18T10:34:23;101769.23;;;21.88;37.40
73245;BME280;61460;41.158;-73.238;2022-11-18T10:36:59;101774.33;;;21.90;37.86
73245;BME280;61460;41.158;-73.238;2022-11-18T10:39:24;101769.05;;;21.82;37.69
73245;BME280;61460;41.158;-73.238;2022-11-18T10:42:00;101773.19;;;21.80;38.23
73245;BME280;61460;41.158;-73.238;2022-11-18T10:44:31;101773.68;;;21.79;38.14
73245;BME280;61460;41.158;-73.238;2022-11-18T10:49:26;101773.63;;;21.80;37.64
73245;BME280;61460;41.158;-73.238;2022-11-18T10:52:05;101772.43;;;21.87;37.62
73245;BME280;61460;41.158;-73.238;2022-11-18T10:54:28;101769.44;;;21.82;38.07
73245;BME280;61460;41.158;-73.238;2022-11-18T10:57:04;101773.42;;;21.85;38.67
73245;BME280;61460;41.158;-73.238;2022-11-18T10:59:31;101780.93;;;21.76;37.75
73245;BME280;61460;41.158;-73.238;2022-11-18T11:02:06;101782.13;;;21.77;37.05
73245;BME280;61460;41.158;-73.238;2022-11-18T11:04:30;101782.04;;;21.75;37.23
73245;BME280;61460;41.158;-73.238;2022-11-18T11:09:31;101790.10;;;21.64;37.96
73245;BME280;61460;41.158;-73.238;2022-11-18T11:12:10;101796.75;;;21.64;37.90
73245;BME280;61460;41.158;-73.238;2022-11-18T11:14:35;101795.05;;;21.66;37.69
73245;BME280;61460;41.158;-73.238;2022-11-18T11:17:08;101800.71;;;21.67;37.67
73245;BME280;61460;41.158;-73.238;2022-11-18T11:19:41;101799.17;;;21.60;39.43
73245;BME280;61460;41.158;-73.238;2022-11-18T11:22:09;101797.70;;;21.70;37.25
73245;BME280;61460;41.158;-73.238;2022-11-18T11:24:36;101804.65;;;21.79;37.53
73245;BME280;61460;41.158;-73.238;2022-11-18T11:32:14;101808.34;;;21.73;37.12
73245;BME280;61460;41.158;-73.238;2022-11-18T11:34:44;101809.78;;;21.63;37.16
73245;BME280;61460;41.158;-73.238;2022-11-18T11:37:16;101809.04;;;21.52;37.56
73245;BME280;61460;41.158;-73.238;2022-11-18T11:39:51;101813.61;;;21.58;37.28
73245;BME280;61460;41.158;-73.238;2022-11-18T11:42:18;101816.97;;;21.50;38.14
73245;BME280;61460;41.158;-73.238;2022-11-18T11:44:50;101819.89;;;21.52;38.25
73245;BME280;61460;41.158;-73.238;2022-11-18T11:47:19;101824.56;;;21.48;37.89
73245;BME280;61460;41.158;-73.238;2022-11-18T11:49:51;101825.61;;;21.45;39.37
73245;BME280;61460;41.158;-73.238;2022-11-18T11:52:17;101824.76;;;21.63;37.37
73245;BME280;61460;41.158;-73.238;2022-11-18T11:54:45;101828.17;;;21.56;37.41
73245;BME280;61460;41.158;-73.238;2022-11-18T11:57:19;101828.04;;;21.67;37.37
73245;BME280;61460;41.158;-73.238;2022-11-18T11:59:47;101825.81;;;21.55;38.05
73245;BME280;61460;41.158;-73.238;2022-11-18T12:02:30;101829.90;;;21.52;38.46
73245;BME280;61460;41.158;-73.238;2022-11-18T12:04:48;101836.68;;;21.49;37.84
73245;BME280;61460;41.158;-73.238;2022-11-18T12:07:18;101840.89;;;21.67;36.80
73245;BME280;61460;41.158;-73.238;2022-11-18T12:10:01;101842.64;;;21.71;36.45
73245;BME280;61460;41.158;-73.238;2022-11-18T12:12:24;101842.53;;;21.56;38.39
73245;BME280;61460;41.158;-73.238;2022-11-18T12:14:53;101847.68;;;21.66;40.22
73245;BME280;61460;41.158;-73.238;2022-11-18T12:17:22;101849.99;;;21.65;40.92
73245;BME280;61460;41.158;-73.238;2022-11-18T12:19:49;101850.21;;;21.59;41.27
73245;BME280;61460;41.158;-73.238;2022-11-18T12:22:19;101851.24;;;21.69;40.08
73245;BME280;61460;41.158;-73.238;2022-11-18T12:24:50;101856.67;;;21.58;39.53
73245;BME280;61460;41.158;-73.238;2022-11-18T12:29:55;101860.96;;;21.90;37.27
73245;BME280;61460;41.158;-73.238;2022-11-18T12:32:27;101861.15;;;22.00;38.34
73245;BME280;61460;41.158;-73.238;2022-11-18T12:34:58;101866.69;;;22.05;39.15
73245;BME280;61460;41.158;-73.238;2022-11-18T12:39:58;101868.06;;;22.11;39.36
73245;BME280;61460;41.158;-73.238;2022-11-18T12:45:00;101865.68;;;22.14;39.37
73245;BME280;61460;41.158;-73.238;2022-11-18T12:54:59;101865.00;;;22.24;39.14
73245;BME280;61460;41.158;-73.238;2022-11-18T12:57:29;101863.50;;;22.42;38.40
73245;BME280;61460;41.158;-73.238;2022-11-18T13:02:29;101863.52;;;22.49;38.61
73245;BME280;61460;41.158;-73.238;2022-11-18T13:05:05;101863.21;;;22.28;39.04
73245;BME280;61460;41.158;-73.238;2022-11-18T13:07:32;101856.44;;;22.16;38.14
73245;BME280;61460;41.158;-73.238;2022-11-18T13:10:14;101857.55;;;22.16;38.86
73245;BME280;61460;41.158;-73.238;2022-11-18T13:12:32;101858.28;;;22.26;37.96
73245;BME280;61460;41.158;-73.238;2022-11-18T13:15:09;101859.04;;;22.50;38.31
73245;BME280;61460;41.158;-73.238;2022-11-18T13:17:34;101854.36;;;22.55;38.56
73245;BME280;61460;41.158;-73.238;2022-11-18T13:20:04;101855.43;;;22.59;38.34